KHMP

Henry County Airport

Hampton, Georgia, USA
METAR KHMP 230935Z AUTO 00000KT 10SM SCT043 09/08 A3021 RMK AO2 T00880081
Observed Flight Rules
Oct-23 @ 09:35 UTC (22 minutes ago) Visual Flight Rules
Visibility Clouds
10 miles
  • Scattered at 4,300' AGL
Temperatures Readings
Current 9°C / 48°F
Dewpoint 8°C / 46°F
Humidity 94%
Altimeter 30.21" Hg
Pressure 1023 hPa
Elevation 269
METAR KHMP 230935Z AUTO 00000KT 10SM SCT043 09/08 A3021 RMK AO2 T00880081
Observed Flight Rules
Oct-23 @ 09:35 UTC
(22 minutes ago)
VFR
Clouds
  • Scattered at 4,300' AGL
Temperature Dewpoint
9°C / 48°F 8°C / 46°F
Humidity Altimeter Pressure
94% 30.21" Hg 1023 hPa